Lake Havasu City, AZ (86403)

1:10 AM MST on February 09, 2016 (GMT -0700)
Huntington Dr | | Change Station
CLOSE
Current Station
Personal Weather Station
Location: Lake Havasu City, AZ
Elevation: 778 ft
Nearby Weather Stations

Elev 778 ft 34.51 °N, 114.33 °W | Updated 17 seconds ago

Clear
Clear
65.5 °F
Feels Like 65.5 °F
N
14.5
Wind Variable Wind from NW
Gusts 15.9 mph

Today
High -- | Low -- °F
--% Chance of Precip.
Yesterday
High -- | Low -- °F
Precip. -- in
Pressure 30.18 in
Visibility 10.0 miles
Clouds Clear
Dew Point 23 °F
Humidity 20%
Rainfall 0.00 in
Snow Depth Not available.
7:28 AM 6:14 PM
New Moon, 1% visible
METAR KEED 090756Z AUTO 36017G23KT 10SM CLR 19/M03 A3024 RMK AO2 SLP219 T01941028 402560144
Pressure 30.18 in
Visibility 10.0 miles
Clouds Clear
Dew Point 23 °F
Humidity 20%
Rainfall 0.00 in
Snow Depth Not available.
7:28 AM 6:14 PM
New Moon, 1% visible
METAR KEED 090756Z AUTO 36017G23KT 10SM CLR 19/M03 A3024 RMK AO2 SLP219 T01941028 402560144

10-Day Weather Forecast

Almanac

Astronomy

Feb. 09, 2016 Rise Set
Actual Time
Civil Twilight
Nautical Twilight
Astronomical Twilight
Moon
Length of Visible Light
Length of Day
Tomorrow will be .
, % of the Moon is Illuminated

Today's Extremes

State Highs State Lows

Community

WunderPhotos

Upload Photos

1,891,571 photos uploaded!

WunderBlog® & News

Nearby

Air Quality

  Air Quality AQ Index Pollutant
Not available.

Snow Depth

Station Depth Elevation

Earthquake Activity

City Distance Mag. Time & Date
Minimum magnitude displayed is 2.5.

Coastal Water Temperatures

Place Temperature

Stations

Nearby Weather Stations

Station Location Temp. Windchill Dew Point Humidity Wind Precip. Elev Updated Type
                   

Watches & Warnings

There are currently no watches in effect.